Mae Imaculada — CURI2 — position and weather

sailwx.info

Track history (hours):
 
Tides and Currents Weather Stations Pressure Air Temp Water Temp Dewpoint Dewpoint Depression Visibility Wind Speed Wind Dir Waves Ship Positions

Mae Imaculada

Last reported at 2017-Oct-19 11:00 UTC. Time now 2017-Oct-19 11:17 UTC.
Position N 36°55' W 008°43'.

Length 18 m.

Type: Fishing. MMSI: 263411470.

Date/timePositionNaut miles runAvg speedWind from/ knotsBaromVisibWave heightAir tempDewpointWater temp
2017-Oct-19 11:00N 36°55' W 008°43'1 2.2
2017-Oct-19 10:31N 36°54' W 008°41'3 5.6
2017-Oct-19 10:00N 36°52' W 008°40'0 0.6
2017-Oct-19 09:30N 36°52' W 008°40'1 2.7
2017-Oct-19 08:59N 36°52' W 008°42'1 1.4
2017-Oct-19 08:31N 36°52' W 008°41'1 1.3
2017-Oct-19 08:00N 36°52' W 008°41'1 1.3
2017-Oct-19 07:31N 36°52' W 008°40'0 0.7
2017-Oct-19 07:00N 36°51' W 008°39'1 1.2
2017-Oct-19 06:31N 36°52' W 008°40'0 0.3
2017-Oct-19 06:01N 36°52' W 008°40'4 7.5
2017-Oct-19 05:30N 36°55' W 008°43'5 8.3
2017-Oct-19 04:55N 36°60' W 008°43'2 4.8
2017-Oct-19 04:30N 37°00' W 008°46'2 4.5
2017-Oct-19 04:01N 36°60' W 008°49'4 8.1
2017-Oct-19 03:30N 37°00' W 008°54'2 2.7
2017-Oct-19 02:57N 37°01' W 008°56'0 0.0
2017-Oct-18 16:42N 37°01' W 008°56'0 0.0
2017-Oct-18 16:10N 37°01' W 008°56'0 0.0
2017-Oct-18 15:59N 37°01' W 008°56'0 0.0
2017-Oct-18 15:31N 37°01' W 008°56'0 0.0
2017-Oct-18 15:00N 37°01' W 008°56'0 0.0
2017-Oct-18 14:00N 37°01' W 008°56'5 5.3
2017-Oct-18 13:02N 36°58' W 008°50'2 8.8
2017-Oct-18 12:50N 36°57' W 008°48'3 8.8
2017-Oct-18 12:30N 36°55' W 008°45'4 8.6
2017-Oct-18 12:00N 36°52' W 008°41'1 1.7
2017-Oct-18 11:30N 36°52' W 008°40'2 4.3
2017-Oct-18 10:59N 36°53' W 008°43'0 1.0
2017-Oct-18 10:30N 36°52' W 008°43'1 1.5
2017-Oct-18 10:01N 36°52' W 008°42'1 1.3
2017-Oct-18 09:30N 36°52' W 008°41'0 0.8
2017-Oct-18 09:00N 36°52' W 008°42'1 2.7
2017-Oct-18 08:30N 36°51' W 008°43'0 0.3
2017-Oct-18 08:00N 36°52' W 008°43'1 1.5
2017-Oct-18 07:30N 36°52' W 008°43'1 1.1
2017-Oct-18 06:59N 36°52' W 008°43'1 1.5
2017-Oct-18 06:30N 36°52' W 008°43'0 0.9
2017-Oct-18 06:01N 36°52' W 008°43'3 5.5
2017-Oct-18 05:30N 36°54' W 008°46'4 8.4
2017-Oct-18 05:01N 36°56' W 008°50'4 8.1
2017-Oct-18 04:29N 36°59' W 008°54'2 0.2
2017-Oct-17 15:38N 37°01' W 008°56'0 0.0
2017-Oct-17 15:28N 37°01' W 008°56'3 7.3
2017-Oct-17 15:00N 37°00' W 008°51'4 9.0
2017-Oct-17 14:30N 37°00' W 008°46'4 8.8
2017-Oct-17 14:00N 36°60' W 008°40'3 6.6
2017-Oct-17 13:30N 36°59' W 008°36'1 1.0
2017-Oct-17 13:00N 36°59' W 008°36'1 1.5
2017-Oct-17 12:30N 36°59' W 008°35'1 1.4
2017-Oct-17 11:53N 36°58' W 008°34'1 3.4
2017-Oct-17 11:29N 36°57' W 008°33'5 7.1
2017-Oct-17 10:50N 36°53' W 008°30'1 0.5
2017-Oct-17 09:19N 36°52' W 008°31'0 1.4
2017-Oct-17 08:58N 36°52' W 008°31'0 0.1
2017-Oct-17 08:26N 36°52' W 008°31'1 1.0
2017-Oct-17 07:57N 36°52' W 008°31'0 0.3
2017-Oct-17 07:13N 36°52' W 008°31'0 1.7
2017-Oct-17 06:59N 36°52' W 008°31'1 1.2
2017-Oct-17 06:30N 36°52' W 008°30'0 0.4
2017-Oct-17 05:59N 36°52' W 008°30'0 0.8
2017-Oct-17 05:22N 36°52' W 008°31'0 0.6
2017-Oct-17 05:01N 36°53' W 008°31'1 2.6
2017-Oct-17 04:30N 36°54' W 008°32'4 8.2
2017-Oct-17 04:00N 36°57' W 008°34'3 5.8
2017-Oct-17 03:30N 36°59' W 008°36'2 4.1
2017-Oct-17 03:00N 37°01' W 008°38'4 8.4
2017-Oct-17 02:30N 37°05' W 008°39'2 3.4
2017-Oct-17 02:00N 37°06' W 008°40'0 0.0
2017-Oct-17 01:30N 37°06' W 008°40'0 0.0
2017-Oct-17 01:00N 37°06' W 008°40'0 0.0
2017-Oct-17 00:30N 37°06' W 008°40'0 0.0
2017-Oct-17 00:00N 37°06' W 008°40'0 0.0
2017-Oct-16 23:30N 37°06' W 008°40'0 0.0
2017-Oct-16 23:00N 37°06' W 008°40'0 0.0
2017-Oct-16 22:30N 37°06' W 008°40'0 0.0
2017-Oct-16 22:00N 37°06' W 008°40'0 0.0
2017-Oct-16 21:30N 37°06' W 008°40'0 0.0
2017-Oct-16 21:00N 37°06' W 008°40'0 0.0
2017-Oct-16 20:30N 37°06' W 008°40'0 0.0
2017-Oct-16 20:00N 37°06' W 008°40'0 0.0
2017-Oct-16 19:26N 37°06' W 008°40'0 0.0
2017-Oct-16 18:53N 37°06' W 008°40'0 0.0
2017-Oct-16 14:24N 37°06' W 008°40'0 0.0
2017-Oct-16 13:30N 37°06' W 008°40'0 0.0
2017-Oct-16 13:00N 37°06' W 008°40'0 0.0
2017-Oct-16 12:30N 37°06' W 008°40'0 0.0
2017-Oct-16 12:00N 37°06' W 008°40'0 0.0
2017-Oct-16 11:30N 37°06' W 008°40'0 0.0
2017-Oct-16 11:00N 37°06' W 008°40'0 0.0
2017-Oct-16 10:30N 37°06' W 008°40'0 0.0
2017-Oct-16 10:00N 37°06' W 008°40'0 0.0
2017-Oct-15 20:54N 37°06' W 008°40'0 0.0
2017-Oct-15 20:29N 37°06' W 008°40'0 0.0
2017-Oct-15 20:00N 37°06' W 008°40'0 0.0
2017-Oct-15 19:30N 37°06' W 008°40'0 0.0
2017-Oct-15 19:00N 37°06' W 008°40'0 0.0
2017-Oct-15 18:29N 37°06' W 008°40'0 0.0
2017-Oct-15 17:54N 37°06' W 008°40'0 0.0
2017-Oct-15 17:29N 37°06' W 008°40'0 0.0
2017-Oct-15 17:00N 37°06' W 008°40'0 0.0
2017-Oct-15 16:28N 37°06' W 008°40'0 0.0
2017-Oct-15 15:57N 37°06' W 008°40'0 0.0
2017-Oct-15 15:28N 37°06' W 008°40'0 0.0
2017-Oct-15 15:00N 37°06' W 008°40'0 0.0
2017-Oct-15 14:00N 37°06' W 008°40'0 0.0
2017-Oct-15 13:26N 37°06' W 008°40'0 0.0
2017-Oct-15 13:00N 37°06' W 008°40'0 0.0
2017-Oct-15 12:29N 37°06' W 008°40'0 0.0
2017-Oct-15 12:00N 37°06' W 008°40'0 0.0
2017-Oct-15 11:29N 37°06' W 008°40'0 0.0
2017-Oct-15 09:14N 37°06' W 008°40'0 0.0
2017-Oct-14 23:24N 37°06' W 008°40'0 0.0
2017-Oct-14 21:23N 37°06' W 008°40'0 0.0
2017-Oct-14 20:56N 37°06' W 008°40'0 0.0
2017-Oct-14 20:30N 37°06' W 008°40'0 0.0
2017-Oct-14 12:33N 37°06' W 008°40'0 0.0
2017-Oct-14 12:28N 37°06' W 008°40'0 0.0
2017-Oct-14 11:58N 37°06' W 008°40'0 0.2
2017-Oct-14 10:10N 37°06' W 008°40'1 7.4
2017-Oct-14 10:00N 37°05' W 008°40'4 7.6
2017-Oct-14 09:27N 37°02' W 008°44'4 8.0
2017-Oct-14 09:00N 37°01' W 008°48'6 8.2
2017-Oct-14 08:19N 37°01' W 008°55'0 1.0
2017-Oct-14 08:00N 37°01' W 008°56'0 0.0
2017-Oct-13 17:48N 37°01' W 008°56'0 0.0
2017-Oct-13 17:30N 37°01' W 008°56'0 0.0
2017-Oct-13 17:00N 37°01' W 008°56'0 0.0
2017-Oct-13 16:29N 37°01' W 008°56'0 0.0
2017-Oct-13 16:00N 37°01' W 008°56'0 0.0
2017-Oct-13 15:30N 37°01' W 008°56'0 0.0
2017-Oct-13 14:58N 37°01' W 008°56'4 7.7
2017-Oct-13 14:30N 37°00' W 008°51'5 9.2
2017-Oct-13 14:00N 36°59' W 008°46'5 9.3
2017-Oct-13 13:30N 36°57' W 008°40'4 9.0
2017-Oct-13 13:00N 36°55' W 008°35'4 8.4
2017-Oct-13 12:31N 36°53' W 008°30'0 0.6
2017-Oct-13 12:00N 36°53' W 008°31'1 1.2
2017-Oct-13 11:30N 36°53' W 008°31'2 4.6
2017-Oct-13 11:00N 36°50' W 008°32'1 1.5
2017-Oct-13 10:27N 36°50' W 008°32'0 1.0
2017-Oct-13 09:59N 36°50' W 008°32'1 1.4
2017-Oct-13 09:30N 36°51' W 008°32'1 0.7
2017-Oct-13 08:40N 36°51' W 008°32'1 4.6
2017-Oct-13 08:23N 36°52' W 008°31'0 0.6
2017-Oct-13 08:00N 36°52' W 008°31'1 1.3
2017-Oct-13 07:30N 36°52' W 008°31'0 0.3
2017-Oct-13 07:00N 36°52' W 008°31'1 1.3
2017-Oct-13 06:26N 36°52' W 008°31'0 0.8
2017-Oct-13 05:59N 36°52' W 008°31'0 0.3
2017-Oct-13 05:30N 36°52' W 008°31'4 5.5
2017-Oct-13 04:48N 36°54' W 008°35'3 8.3
2017-Oct-13 04:29N 36°55' W 008°38'4 8.3
2017-Oct-13 03:57N 36°56' W 008°43'4 7.4
2017-Oct-13 03:26N 36°58' W 008°48'7 0.6
2017-Oct-12 16:58N 37°01' W 008°56'0 0.0
2017-Oct-12 16:30N 37°01' W 008°56'1 1.4
2017-Oct-12 15:50N 37°00' W 008°54'3 8.7
2017-Oct-12 15:27N 36°58' W 008°51'4 8.5
2017-Oct-12 15:00N 36°56' W 008°47'4 8.3
2017-Oct-12 14:30N 36°53' W 008°44'3 6.0
2017-Oct-12 14:00N 36°52' W 008°40'0 0.4
2017-Oct-12 13:29N 36°52' W 008°40'1 2.1
2017-Oct-12 13:00N 36°52' W 008°41'1 1.8
2017-Oct-12 12:28N 36°52' W 008°43'2 5.5
2017-Oct-12 12:00N 36°51' W 008°39'1 1.4
2017-Oct-12 11:30N 36°51' W 008°40'1 2.2
2017-Oct-12 11:00N 36°51' W 008°42'1 1.5
2017-Oct-12 10:28N 36°52' W 008°43'0 0.9
2017-Oct-12 10:00N 36°51' W 008°43'1 1.5
2017-Oct-12 09:30N 36°51' W 008°42'0 0.2
2017-Oct-12 09:00N 36°51' W 008°42'1 1.8
2017-Oct-12 08:29N 36°52' W 008°43'1 1.3
2017-Oct-12 07:48N 36°53' W 008°44'2 6.3
2017-Oct-12 07:30N 36°53' W 008°46'5 8.0
2017-Oct-12 06:55N 36°57' W 008°50'3 7.9
2017-Oct-12 06:30N 36°59' W 008°53'3 0.2
2017-Oct-11 17:46N 37°01' W 008°56'0 0.0
2017-Oct-11 17:30N 37°01' W 008°56'0 0.0
2017-Oct-11 16:53N 37°01' W 008°56'0 0.0
2017-Oct-10 16:51N 37°01' W 008°56'0 0.0
2017-Oct-10 16:30N 37°01' W 008°56'3 6.4
2017-Oct-10 16:00N 37°00' W 008°52'4 9.2
2017-Oct-10 15:30N 36°59' W 008°46'5 8.8
2017-Oct-10 14:59N 36°56' W 008°41'8 8.7
2017-Oct-10 14:00N 36°53' W 008°32'1 2.1
2017-Oct-10 13:30N 36°52' W 008°31'0 0.5
2017-Oct-10 13:00N 36°52' W 008°31'1 1.4
2017-Oct-10 12:30N 36°51' W 008°31'1 1.0
2017-Oct-10 12:00N 36°52' W 008°31'1 1.2
2017-Oct-10 11:29N 36°52' W 008°31'3 5.6
2017-Oct-10 10:58N 36°50' W 008°32'0 0.7
2017-Oct-10 10:30N 36°50' W 008°32'1 1.0
2017-Oct-10 10:00N 36°50' W 008°32'1 1.1
2017-Oct-10 09:30N 36°51' W 008°32'1 1.6
2017-Oct-10 09:00N 36°52' W 008°32'2 4.6
2017-Oct-10 08:30N 36°53' W 008°30'0 0.9
2017-Oct-10 08:00N 36°53' W 008°30'1 1.5
2017-Oct-10 07:30N 36°53' W 008°31'4 8.1
2017-Oct-10 07:00N 36°54' W 008°36'5 8.2
2017-Oct-10 06:27N 36°56' W 008°41'4 8.1
2017-Oct-10 06:00N 36°57' W 008°46'5 8.0
2017-Oct-10 05:26N 36°59' W 008°51'3 7.8
2017-Oct-10 04:59N 37°00' W 008°55'1 0.1
2017-Oct-09 17:23N 37°01' W 008°56'0 0.0
2017-Oct-09 17:00N 37°01' W 008°56'0 0.0
2017-Oct-09 16:29N 37°01' W 008°56'0 0.0
2017-Oct-09 15:59N 37°01' W 008°56'0 0.0
2017-Oct-09 15:27N 37°01' W 008°56'0 0.0
2017-Oct-09 15:00N 37°01' W 008°56'0 0.0
2017-Oct-09 14:30N 37°01' W 008°56'0 0.0
2017-Oct-09 13:58N 37°01' W 008°56'0 0.9
2017-Oct-09 13:30N 37°01' W 008°55'5 9.2
2017-Oct-09 13:00N 37°02' W 008°49'5 9.2
2017-Oct-09 12:30N 37°03' W 008°44'5 9.2
2017-Oct-09 12:00N 37°04' W 008°38'4 8.8
2017-Oct-09 11:30N 37°05' W 008°33'3 6.0
2017-Oct-09 11:00N 37°08' W 008°32'  
Track history (hours):
 
Tides and Currents Weather Stations Pressure Air Temp Water Temp Dewpoint Dewpoint Depression Visibility Wind Speed Wind Dir Waves Ship Positions

Mae Imaculada

Last reported at 2017-Oct-19 11:00 UTC. Time now 2017-Oct-19 11:17 UTC.
Position N 36°55' W 008°43'.

Length 18 m.

Type: Fishing. MMSI: 263411470.

Date/timePositionNaut miles runAvg speedWind from/ knotsBaromVisibWave heightAir tempDewpointWater temp
2017-Oct-19 11:00N 36°55' W 008°43'1 2.2
2017-Oct-19 10:31N 36°54' W 008°41'3 5.6
2017-Oct-19 10:00N 36°52' W 008°40'0 0.6
2017-Oct-19 09:30N 36°52' W 008°40'1 2.7
2017-Oct-19 08:59N 36°52' W 008°42'1 1.4
2017-Oct-19 08:31N 36°52' W 008°41'1 1.3
2017-Oct-19 08:00N 36°52' W 008°41'1 1.3
2017-Oct-19 07:31N 36°52' W 008°40'0 0.7
2017-Oct-19 07:00N 36°51' W 008°39'1 1.2
2017-Oct-19 06:31N 36°52' W 008°40'0 0.3
2017-Oct-19 06:01N 36°52' W 008°40'4 7.5
2017-Oct-19 05:30N 36°55' W 008°43'5 8.3
2017-Oct-19 04:55N 36°60' W 008°43'2 4.8
2017-Oct-19 04:30N 37°00' W 008°46'2 4.5
2017-Oct-19 04:01N 36°60' W 008°49'4 8.1
2017-Oct-19 03:30N 37°00' W 008°54'2 2.7
2017-Oct-19 02:57N 37°01' W 008°56'0 0.0
2017-Oct-18 16:42N 37°01' W 008°56'0 0.0
2017-Oct-18 16:10N 37°01' W 008°56'0 0.0
2017-Oct-18 15:59N 37°01' W 008°56'0 0.0
2017-Oct-18 15:31N 37°01' W 008°56'0 0.0
2017-Oct-18 15:00N 37°01' W 008°56'0 0.0
2017-Oct-18 14:00N 37°01' W 008°56'5 5.3
2017-Oct-18 13:02N 36°58' W 008°50'2 8.8
2017-Oct-18 12:50N 36°57' W 008°48'3 8.8
2017-Oct-18 12:30N 36°55' W 008°45'4 8.6
2017-Oct-18 12:00N 36°52' W 008°41'1 1.7
2017-Oct-18 11:30N 36°52' W 008°40'2 4.3
2017-Oct-18 10:59N 36°53' W 008°43'0 1.0
2017-Oct-18 10:30N 36°52' W 008°43'1 1.5
2017-Oct-18 10:01N 36°52' W 008°42'1 1.3
2017-Oct-18 09:30N 36°52' W 008°41'0 0.8
2017-Oct-18 09:00N 36°52' W 008°42'1 2.7
2017-Oct-18 08:30N 36°51' W 008°43'0 0.3
2017-Oct-18 08:00N 36°52' W 008°43'1 1.5
2017-Oct-18 07:30N 36°52' W 008°43'1 1.1
2017-Oct-18 06:59N 36°52' W 008°43'1 1.5
2017-Oct-18 06:30N 36°52' W 008°43'0 0.9
2017-Oct-18 06:01N 36°52' W 008°43'3 5.5
2017-Oct-18 05:30N 36°54' W 008°46'4 8.4
2017-Oct-18 05:01N 36°56' W 008°50'4 8.1
2017-Oct-18 04:29N 36°59' W 008°54'2 0.2
2017-Oct-17 15:38N 37°01' W 008°56'0 0.0
2017-Oct-17 15:28N 37°01' W 008°56'3 7.3
2017-Oct-17 15:00N 37°00' W 008°51'4 9.0
2017-Oct-17 14:30N 37°00' W 008°46'4 8.8
2017-Oct-17 14:00N 36°60' W 008°40'3 6.6
2017-Oct-17 13:30N 36°59' W 008°36'1 1.0
2017-Oct-17 13:00N 36°59' W 008°36'1 1.5
2017-Oct-17 12:30N 36°59' W 008°35'1 1.4
2017-Oct-17 11:53N 36°58' W 008°34'1 3.4
2017-Oct-17 11:29N 36°57' W 008°33'5 7.1
2017-Oct-17 10:50N 36°53' W 008°30'1 0.5
2017-Oct-17 09:19N 36°52' W 008°31'0 1.4
2017-Oct-17 08:58N 36°52' W 008°31'0 0.1
2017-Oct-17 08:26N 36°52' W 008°31'1 1.0
2017-Oct-17 07:57N 36°52' W 008°31'0 0.3
2017-Oct-17 07:13N 36°52' W 008°31'0 1.7
2017-Oct-17 06:59N 36°52' W 008°31'1 1.2
2017-Oct-17 06:30N 36°52' W 008°30'0 0.4
2017-Oct-17 05:59N 36°52' W 008°30'0 0.8
2017-Oct-17 05:22N 36°52' W 008°31'0 0.6
2017-Oct-17 05:01N 36°53' W 008°31'1 2.6
2017-Oct-17 04:30N 36°54' W 008°32'4 8.2
2017-Oct-17 04:00N 36°57' W 008°34'3 5.8
2017-Oct-17 03:30N 36°59' W 008°36'2 4.1
2017-Oct-17 03:00N 37°01' W 008°38'4 8.4
2017-Oct-17 02:30N 37°05' W 008°39'2 3.4
2017-Oct-17 02:00N 37°06' W 008°40'0 0.0
2017-Oct-17 01:30N 37°06' W 008°40'0 0.0
2017-Oct-17 01:00N 37°06' W 008°40'0 0.0
2017-Oct-17 00:30N 37°06' W 008°40'0 0.0
2017-Oct-17 00:00N 37°06' W 008°40'0 0.0
2017-Oct-16 23:30N 37°06' W 008°40'0 0.0
2017-Oct-16 23:00N 37°06' W 008°40'0 0.0
2017-Oct-16 22:30N 37°06' W 008°40'0 0.0
2017-Oct-16 22:00N 37°06' W 008°40'0 0.0
2017-Oct-16 21:30N 37°06' W 008°40'0 0.0
2017-Oct-16 21:00N 37°06' W 008°40'0 0.0
2017-Oct-16 20:30N 37°06' W 008°40'0 0.0
2017-Oct-16 20:00N 37°06' W 008°40'0 0.0
2017-Oct-16 19:26N 37°06' W 008°40'0 0.0
2017-Oct-16 18:53N 37°06' W 008°40'0 0.0
2017-Oct-16 14:24N 37°06' W 008°40'0 0.0
2017-Oct-16 13:30N 37°06' W 008°40'0 0.0
2017-Oct-16 13:00N 37°06' W 008°40'0 0.0
2017-Oct-16 12:30N 37°06' W 008°40'0 0.0
2017-Oct-16 12:00N 37°06' W 008°40'0 0.0
2017-Oct-16 11:30N 37°06' W 008°40'0 0.0
2017-Oct-16 11:00N 37°06' W 008°40'0 0.0
2017-Oct-16 10:30N 37°06' W 008°40'0 0.0
2017-Oct-16 10:00N 37°06' W 008°40'0 0.0
2017-Oct-15 20:54N 37°06' W 008°40'0 0.0
2017-Oct-15 20:29N 37°06' W 008°40'0 0.0
2017-Oct-15 20:00N 37°06' W 008°40'0 0.0
2017-Oct-15 19:30N 37°06' W 008°40'0 0.0
2017-Oct-15 19:00N 37°06' W 008°40'0 0.0
2017-Oct-15 18:29N 37°06' W 008°40'0 0.0
2017-Oct-15 17:54N 37°06' W 008°40'0 0.0
2017-Oct-15 17:29N 37°06' W 008°40'0 0.0
2017-Oct-15 17:00N 37°06' W 008°40'0 0.0
2017-Oct-15 16:28N 37°06' W 008°40'0 0.0
2017-Oct-15 15:57N 37°06' W 008°40'0 0.0
2017-Oct-15 15:28N 37°06' W 008°40'0 0.0
2017-Oct-15 15:00N 37°06' W 008°40'0 0.0
2017-Oct-15 14:00N 37°06' W 008°40'0 0.0
2017-Oct-15 13:26N 37°06' W 008°40'0 0.0
2017-Oct-15 13:00N 37°06' W 008°40'0 0.0
2017-Oct-15 12:29N 37°06' W 008°40'0 0.0
2017-Oct-15 12:00N 37°06' W 008°40'0 0.0
2017-Oct-15 11:29N 37°06' W 008°40'0 0.0
2017-Oct-15 09:14N 37°06' W 008°40'0 0.0
2017-Oct-14 23:24N 37°06' W 008°40'0 0.0
2017-Oct-14 21:23N 37°06' W 008°40'0 0.0
2017-Oct-14 20:56N 37°06' W 008°40'0 0.0
2017-Oct-14 20:30N 37°06' W 008°40'0 0.0
2017-Oct-14 12:33N 37°06' W 008°40'0 0.0
2017-Oct-14 12:28N 37°06' W 008°40'0 0.0
2017-Oct-14 11:58N 37°06' W 008°40'0 0.2
2017-Oct-14 10:10N 37°06' W 008°40'1 7.4
2017-Oct-14 10:00N 37°05' W 008°40'4 7.6
2017-Oct-14 09:27N 37°02' W 008°44'4 8.0
2017-Oct-14 09:00N 37°01' W 008°48'6 8.2
2017-Oct-14 08:19N 37°01' W 008°55'0 1.0
2017-Oct-14 08:00N 37°01' W 008°56'0 0.0
2017-Oct-13 17:48N 37°01' W 008°56'0 0.0
2017-Oct-13 17:30N 37°01' W 008°56'0 0.0
2017-Oct-13 17:00N 37°01' W 008°56'0 0.0
2017-Oct-13 16:29N 37°01' W 008°56'0 0.0
2017-Oct-13 16:00N 37°01' W 008°56'0 0.0
2017-Oct-13 15:30N 37°01' W 008°56'0 0.0
2017-Oct-13 14:58N 37°01' W 008°56'4 7.7
2017-Oct-13 14:30N 37°00' W 008°51'5 9.2
2017-Oct-13 14:00N 36°59' W 008°46'5 9.3
2017-Oct-13 13:30N 36°57' W 008°40'4 9.0
2017-Oct-13 13:00N 36°55' W 008°35'4 8.4
2017-Oct-13 12:31N 36°53' W 008°30'0 0.6
2017-Oct-13 12:00N 36°53' W 008°31'1 1.2
2017-Oct-13 11:30N 36°53' W 008°31'2 4.6
2017-Oct-13 11:00N 36°50' W 008°32'1 1.5
2017-Oct-13 10:27N 36°50' W 008°32'0 1.0
2017-Oct-13 09:59N 36°50' W 008°32'1 1.4
2017-Oct-13 09:30N 36°51' W 008°32'1 0.7
2017-Oct-13 08:40N 36°51' W 008°32'1 4.6
2017-Oct-13 08:23N 36°52' W 008°31'0 0.6
2017-Oct-13 08:00N 36°52' W 008°31'1 1.3
2017-Oct-13 07:30N 36°52' W 008°31'0 0.3
2017-Oct-13 07:00N 36°52' W 008°31'1 1.3
2017-Oct-13 06:26N 36°52' W 008°31'0 0.8
2017-Oct-13 05:59N 36°52' W 008°31'0 0.3
2017-Oct-13 05:30N 36°52' W 008°31'4 5.5
2017-Oct-13 04:48N 36°54' W 008°35'3 8.3
2017-Oct-13 04:29N 36°55' W 008°38'4 8.3
2017-Oct-13 03:57N 36°56' W 008°43'4 7.4
2017-Oct-13 03:26N 36°58' W 008°48'7 0.6
2017-Oct-12 16:58N 37°01' W 008°56'0 0.0
2017-Oct-12 16:30N 37°01' W 008°56'1 1.4
2017-Oct-12 15:50N 37°00' W 008°54'3 8.7
2017-Oct-12 15:27N 36°58' W 008°51'4 8.5
2017-Oct-12 15:00N 36°56' W 008°47'4 8.3
2017-Oct-12 14:30N 36°53' W 008°44'3 6.0
2017-Oct-12 14:00N 36°52' W 008°40'0 0.4
2017-Oct-12 13:29N 36°52' W 008°40'1 2.1
2017-Oct-12 13:00N 36°52' W 008°41'1 1.8
2017-Oct-12 12:28N 36°52' W 008°43'2 5.5
2017-Oct-12 12:00N 36°51' W 008°39'1 1.4
2017-Oct-12 11:30N 36°51' W 008°40'1 2.2
2017-Oct-12 11:00N 36°51' W 008°42'1 1.5
2017-Oct-12 10:28N 36°52' W 008°43'0 0.9
2017-Oct-12 10:00N 36°51' W 008°43'1 1.5
2017-Oct-12 09:30N 36°51' W 008°42'0 0.2
2017-Oct-12 09:00N 36°51' W 008°42'1 1.8
2017-Oct-12 08:29N 36°52' W 008°43'1 1.3
2017-Oct-12 07:48N 36°53' W 008°44'2 6.3
2017-Oct-12 07:30N 36°53' W 008°46'5 8.0
2017-Oct-12 06:55N 36°57' W 008°50'3 7.9
2017-Oct-12 06:30N 36°59' W 008°53'3 0.2
2017-Oct-11 17:46N 37°01' W 008°56'0 0.0
2017-Oct-11 17:30N 37°01' W 008°56'0 0.0
2017-Oct-11 16:53N 37°01' W 008°56'0 0.0
2017-Oct-10 16:51N 37°01' W 008°56'0 0.0
2017-Oct-10 16:30N 37°01' W 008°56'3 6.4
2017-Oct-10 16:00N 37°00' W 008°52'4 9.2
2017-Oct-10 15:30N 36°59' W 008°46'5 8.8
2017-Oct-10 14:59N 36°56' W 008°41'8 8.7
2017-Oct-10 14:00N 36°53' W 008°32'1 2.1
2017-Oct-10 13:30N 36°52' W 008°31'0 0.5
2017-Oct-10 13:00N 36°52' W 008°31'1 1.4
2017-Oct-10 12:30N 36°51' W 008°31'1 1.0
2017-Oct-10 12:00N 36°52' W 008°31'1 1.2
2017-Oct-10 11:29N 36°52' W 008°31'3 5.6
2017-Oct-10 10:58N 36°50' W 008°32'0 0.7
2017-Oct-10 10:30N 36°50' W 008°32'1 1.0
2017-Oct-10 10:00N 36°50' W 008°32'1 1.1
2017-Oct-10 09:30N 36°51' W 008°32'1 1.6
2017-Oct-10 09:00N 36°52' W 008°32'2 4.6
2017-Oct-10 08:30N 36°53' W 008°30'0 0.9
2017-Oct-10 08:00N 36°53' W 008°30'1 1.5
2017-Oct-10 07:30N 36°53' W 008°31'4 8.1
2017-Oct-10 07:00N 36°54' W 008°36'5 8.2
2017-Oct-10 06:27N 36°56' W 008°41'4 8.1
2017-Oct-10 06:00N 36°57' W 008°46'5 8.0
2017-Oct-10 05:26N 36°59' W 008°51'3 7.8
2017-Oct-10 04:59N 37°00' W 008°55'1 0.1
2017-Oct-09 17:23N 37°01' W 008°56'0 0.0
2017-Oct-09 17:00N 37°01' W 008°56'0 0.0
2017-Oct-09 16:29N 37°01' W 008°56'0 0.0
2017-Oct-09 15:59N 37°01' W 008°56'0 0.0
2017-Oct-09 15:27N 37°01' W 008°56'0 0.0
2017-Oct-09 15:00N 37°01' W 008°56'0 0.0
2017-Oct-09 14:30N 37°01' W 008°56'0 0.0
2017-Oct-09 13:58N 37°01' W 008°56'0 0.9
2017-Oct-09 13:30N 37°01' W 008°55'5 9.2
2017-Oct-09 13:00N 37°02' W 008°49'5 9.2
2017-Oct-09 12:30N 37°03' W 008°44'5 9.2
2017-Oct-09 12:00N 37°04' W 008°38'4 8.8
2017-Oct-09 11:30N 37°05' W 008°33'3 6.0
2017-Oct-09 11:00N 37°08' W 008°32'  

Dump ship's entire track history